createdAt,value
2017-09-29T00:00:29.568Z,18.80
2017-09-29T00:03:05.002Z,20.00
2017-09-29T00:05:32.510Z,20.70
2017-09-29T00:08:00.060Z,19.50
2017-09-29T00:10:27.576Z,20.53
2017-09-29T00:12:55.390Z,14.98
2017-09-29T00:15:23.270Z,22.03
2017-09-29T00:17:51.072Z,21.60
2017-09-29T00:20:18.602Z,21.10
2017-09-29T00:22:46.184Z,18.57
2017-09-29T00:25:13.698Z,17.90
2017-09-29T00:27:41.207Z,20.60
2017-09-29T00:30:10.456Z,17.80
2017-09-29T00:32:38.227Z,17.13
2017-09-29T00:35:05.744Z,16.80
2017-09-29T00:37:33.311Z,19.50
2017-09-29T00:40:00.921Z,15.50
2017-09-29T00:42:29.355Z,12.43
2017-09-29T00:44:57.727Z,14.77
2017-09-29T00:47:25.239Z,16.00
2017-09-29T00:49:59.987Z,16.07
2017-09-29T00:52:27.516Z,16.73
2017-09-29T00:54:55.032Z,20.60
2017-09-29T00:57:22.650Z,14.90
2017-09-29T00:59:50.163Z,19.60
2017-09-29T01:02:17.673Z,19.23
2017-09-29T01:04:49.803Z,19.77
2017-09-29T01:07:18.493Z,18.00
2017-09-29T01:09:46.228Z,20.12
2017-09-29T01:12:15.222Z,23.23
2017-09-29T01:14:43.004Z,23.00
2017-09-29T01:17:10.767Z,25.30
2017-09-29T01:19:38.928Z,23.90
2017-09-29T01:22:06.443Z,23.30
2017-09-29T01:24:33.971Z,24.60
2017-09-29T01:27:01.523Z,20.00
2017-09-29T01:29:29.063Z,18.52
2017-09-29T01:31:56.581Z,21.47
2017-09-29T01:34:27.039Z,23.07
2017-09-29T01:36:55.324Z,23.15
2017-09-29T01:39:22.909Z,26.50
2017-09-29T01:41:50.431Z,23.87
2017-09-29T01:44:18.616Z,24.23
2017-09-29T01:46:46.371Z,25.33
2017-09-29T01:49:17.241Z,28.43
2017-09-29T01:51:44.804Z,27.85
2017-09-29T01:54:12.303Z,27.07
2017-09-29T01:56:40.174Z,24.43
2017-09-29T01:59:07.735Z,28.60
2017-09-29T02:01:35.253Z,24.40
2017-09-29T02:04:02.755Z,25.67
2017-09-29T02:06:31.284Z,25.20
2017-09-29T02:08:58.806Z,21.00
2017-09-29T02:11:27.222Z,22.17
2017-09-29T02:13:55.131Z,21.33
2017-09-29T02:16:22.717Z,22.17
2017-09-29T02:18:50.443Z,23.80
2017-09-29T02:21:17.975Z,22.27
2017-09-29T02:23:45.528Z,23.97
2017-09-29T02:26:13.368Z,24.60
2017-09-29T02:28:41.677Z,24.87
2017-09-29T02:31:09.385Z,23.85
2017-09-29T02:33:37.250Z,25.17
2017-09-29T02:36:04.810Z,23.67
2017-09-29T02:38:32.783Z,26.70
2017-09-29T02:41:00.303Z,24.00
2017-09-29T02:43:28.348Z,25.20
2017-09-29T02:45:55.877Z,26.80
2017-09-29T02:48:24.215Z,26.00
2017-09-29T02:50:51.742Z,24.67
2017-09-29T02:53:19.275Z,25.10
2017-09-29T02:55:47.795Z,25.20
2017-09-29T02:58:17.346Z,25.27
2017-09-29T03:00:53.671Z,23.33
2017-09-29T03:03:23.683Z,26.60
2017-09-29T03:05:57.179Z,26.20
2017-09-29T03:08:25.197Z,27.37
2017-09-29T03:10:52.768Z,26.77
2017-09-29T03:13:20.615Z,24.57
2017-09-29T03:15:48.132Z,28.07
2017-09-29T03:18:15.667Z,24.30
2017-09-29T03:20:44.868Z,24.47
2017-09-29T03:23:13.170Z,28.10
2017-09-29T03:25:41.228Z,26.77
2017-09-29T03:28:10.002Z,28.05
2017-09-29T03:30:39.200Z,23.47
2017-09-29T03:33:06.739Z,23.20
2017-09-29T03:35:34.447Z,23.43
2017-09-29T03:38:02.212Z,25.17
2017-09-29T03:40:29.938Z,26.27
2017-09-29T03:42:57.791Z,25.00
2017-09-29T03:45:25.588Z,23.20
2017-09-29T03:47:53.139Z,27.50
2017-09-29T03:50:22.791Z,25.00
2017-09-29T03:52:52.530Z,25.40
2017-09-29T03:55:22.372Z,26.15
2017-09-29T03:57:52.442Z,26.02
2017-09-29T04:00:20.324Z,23.38
2017-09-29T04:02:48.507Z,23.73
2017-09-29T04:05:16.016Z,26.70
2017-09-29T04:07:43.570Z,25.47
2017-09-29T04:10:11.081Z,25.93
2017-09-29T04:12:38.605Z,27.20
2017-09-29T04:15:06.148Z,28.17
2017-09-29T04:17:33.657Z,27.42
2017-09-29T04:20:01.851Z,26.85
2017-09-29T04:22:29.365Z,28.03
2017-09-29T04:24:56.958Z,28.00
2017-09-29T04:27:24.640Z,26.17
2017-09-29T04:29:52.966Z,28.27
2017-09-29T04:32:22.043Z,26.87
2017-09-29T04:34:49.623Z,24.60
2017-09-29T04:37:17.695Z,25.33
2017-09-29T04:39:48.609Z,29.80
2017-09-29T04:42:16.999Z,30.80
2017-09-29T04:44:44.707Z,21.55
2017-09-29T04:47:12.218Z,21.70
2017-09-29T04:49:40.660Z,23.62
2017-09-29T04:52:12.031Z,21.80
2017-09-29T04:54:39.544Z,22.57
2017-09-29T04:57:07.155Z,26.25
2017-09-29T04:59:36.368Z,26.03
2017-09-29T05:02:03.910Z,26.87
2017-09-29T05:04:31.416Z,28.27
2017-09-29T05:06:59.006Z,31.00
2017-09-29T05:09:27.326Z,27.87
2017-09-29T05:14:29.075Z,26.58
2017-09-29T05:16:56.787Z,26.95
2017-09-29T05:19:24.490Z,27.90
2017-09-29T05:21:52.011Z,29.20
2017-09-29T05:24:20.928Z,25.96
2017-09-29T05:26:48.802Z,29.67
2017-09-29T05:29:16.311Z,26.47
2017-09-29T05:31:48.274Z,26.42
2017-09-29T05:34:15.908Z,26.52
2017-09-29T05:36:43.431Z,30.63
2017-09-29T05:39:10.959Z,27.20
2017-09-29T05:41:38.554Z,29.20
2017-09-29T05:44:06.395Z,27.55
2017-09-29T05:46:33.947Z,27.98
2017-09-29T05:49:01.667Z,27.35
2017-09-29T05:51:29.441Z,25.90
2017-09-29T05:53:56.964Z,29.30
2017-09-29T05:56:25.247Z,29.53
2017-09-29T05:58:54.274Z,28.35
2017-09-29T06:01:21.792Z,24.40
2017-09-29T06:03:50.112Z,26.13
2017-09-29T06:06:17.938Z,26.62
2017-09-29T06:08:46.238Z,27.60
2017-09-29T06:11:13.766Z,26.77
2017-09-29T06:13:43.002Z,25.33
2017-09-29T06:16:10.547Z,26.70
2017-09-29T06:18:38.630Z,25.30
2017-09-29T06:21:06.623Z,23.83
2017-09-29T06:23:34.952Z,24.40
2017-09-29T06:26:05.809Z,24.90
2017-09-29T06:28:33.376Z,25.12
2017-09-29T06:31:02.628Z,23.98
2017-09-29T06:33:31.816Z,24.50
2017-09-29T06:35:59.367Z,24.93
2017-09-29T06:38:27.475Z,24.95
2017-09-29T06:40:55.756Z,24.77
2017-09-29T06:43:23.273Z,26.70
2017-09-29T06:45:50.832Z,25.50
2017-09-29T06:48:19.120Z,25.25
2017-09-29T06:50:46.649Z,26.50
2017-09-29T06:53:14.989Z,28.07
2017-09-29T06:55:42.552Z,25.47
2017-09-29T06:58:10.419Z,26.87
2017-09-29T07:00:37.945Z,25.77
2017-09-29T07:03:07.192Z,25.02
2017-09-29T07:05:35.631Z,26.30
2017-09-29T07:08:03.968Z,26.63
2017-09-29T07:10:35.214Z,26.13
2017-09-29T07:13:02.844Z,25.92
2017-09-29T07:15:31.648Z,25.42
2017-09-29T07:17:59.593Z,25.77
2017-09-29T07:20:27.107Z,24.57
2017-09-29T07:22:54.616Z,26.15
2017-09-29T07:25:28.155Z,25.60
2017-09-29T07:27:57.844Z,26.10
2017-09-29T07:30:29.339Z,25.75
2017-09-29T07:32:56.875Z,23.58
2017-09-29T07:35:24.676Z,24.20
2017-09-29T07:37:52.232Z,25.65
2017-09-29T07:40:21.446Z,25.90
2017-09-29T07:42:49.004Z,28.30
2017-09-29T07:45:17.274Z,25.73
2017-09-29T07:47:44.825Z,26.30
2017-09-29T07:50:13.147Z,26.17
2017-09-29T07:52:40.682Z,25.97
2017-09-29T07:55:08.468Z,25.97
2017-09-29T07:57:36.075Z,28.15
2017-09-29T08:00:03.592Z,25.70
2017-09-29T08:02:31.144Z,25.90
2017-09-29T08:05:00.399Z,26.90
2017-09-29T08:07:28.739Z,28.02
2017-09-29T08:09:56.251Z,27.23
2017-09-29T08:12:25.425Z,26.58
2017-09-29T08:14:52.972Z,27.00
2017-09-29T08:17:20.733Z,27.75
2017-09-29T08:19:49.364Z,25.08
2017-09-29T08:22:16.887Z,28.20
2017-09-29T08:24:44.455Z,26.60
2017-09-29T08:27:11.971Z,28.57
2017-09-29T08:29:39.810Z,29.10
2017-09-29T08:32:07.579Z,27.07
2017-09-29T08:34:35.096Z,28.40
2017-09-29T08:37:02.627Z,27.87
2017-09-29T08:39:30.970Z,27.57
2017-09-29T08:41:58.643Z,30.73
2017-09-29T08:44:26.406Z,28.30
2017-09-29T08:46:54.125Z,30.33
2017-09-29T08:49:21.818Z,29.02
2017-09-29T08:51:50.303Z,27.60
2017-09-29T08:54:17.855Z,30.53
2017-09-29T08:56:47.068Z,29.10
2017-09-29T08:59:14.571Z,29.20
2017-09-29T09:01:42.193Z,29.07
2017-09-29T09:04:09.767Z,26.50
2017-09-29T09:06:37.283Z,27.50
2017-09-29T09:09:06.967Z,30.12
2017-09-29T09:11:34.492Z,28.07
2017-09-29T09:14:05.412Z,27.03
2017-09-29T09:16:32.925Z,28.23
2017-09-29T09:19:00.886Z,30.00
2017-09-29T09:21:28.510Z,29.23
2017-09-29T09:23:56.167Z,29.37
2017-09-29T09:26:23.810Z,26.30
2017-09-29T09:28:51.330Z,26.53
2017-09-29T09:31:19.788Z,31.12
2017-09-29T09:33:47.343Z,30.73
2017-09-29T09:36:14.856Z,29.20
2017-09-29T09:38:42.414Z,27.63
2017-09-29T09:41:09.928Z,28.90
2017-09-29T09:43:40.426Z,26.90
2017-09-29T09:46:07.935Z,27.23
2017-09-29T09:48:35.496Z,28.93
2017-09-29T09:51:03.713Z,28.58
2017-09-29T09:53:31.263Z,27.90
2017-09-29T09:55:59.543Z,28.10
2017-09-29T09:58:27.066Z,27.27
2017-09-29T10:00:54.612Z,28.77
2017-09-29T10:03:23.144Z,26.33
2017-09-29T10:05:50.718Z,28.08
2017-09-29T10:08:18.404Z,25.03
2017-09-29T10:10:46.140Z,25.60
2017-09-29T10:13:13.774Z,27.00
2017-09-29T10:15:45.195Z,27.13
2017-09-29T10:18:12.703Z,27.67
2017-09-29T10:20:40.580Z,25.67
2017-09-29T10:23:08.459Z,25.47
2017-09-29T10:25:42.714Z,25.60
2017-09-29T10:28:10.593Z,26.60
2017-09-29T10:30:39.878Z,26.10
2017-09-29T10:33:08.358Z,27.00
2017-09-29T10:35:35.860Z,25.87
2017-09-29T10:38:03.480Z,27.30
2017-09-29T10:40:31.039Z,26.27
2017-09-29T10:42:58.743Z,26.52
2017-09-29T10:45:26.634Z,27.85
2017-09-29T10:47:54.564Z,27.87
2017-09-29T10:50:22.408Z,26.07
2017-09-29T10:52:49.912Z,28.30
2017-09-29T10:55:18.235Z,26.55
2017-09-29T10:57:46.651Z,25.25
2017-09-29T11:00:14.343Z,26.77
2017-09-29T11:02:41.859Z,25.63
2017-09-29T11:05:11.377Z,26.13
2017-09-29T11:07:38.957Z,28.10
2017-09-29T11:10:06.518Z,28.80
2017-09-29T11:12:34.035Z,28.90
2017-09-29T11:15:01.567Z,26.60
2017-09-29T11:17:29.719Z,27.67
2017-09-29T11:19:57.257Z,27.20
2017-09-29T11:22:24.839Z,26.77
2017-09-29T11:24:52.427Z,26.40
2017-09-29T11:27:19.940Z,29.00
2017-09-29T11:29:47.912Z,25.67
2017-09-29T11:32:18.344Z,26.30
2017-09-29T11:34:46.100Z,26.10
2017-09-29T11:37:13.821Z,24.57
2017-09-29T11:39:41.351Z,26.77
2017-09-29T11:42:08.934Z,26.90
2017-09-29T11:44:36.599Z,27.47
2017-09-29T11:47:04.160Z,27.10
2017-09-29T11:49:32.505Z,24.40
2017-09-29T11:52:00.456Z,27.53
2017-09-29T11:54:27.986Z,26.27
2017-09-29T11:56:57.275Z,26.73
2017-09-29T11:59:25.695Z,26.87
2017-09-29T12:01:53.643Z,28.27
2017-09-29T12:04:21.759Z,26.57
2017-09-29T12:06:49.267Z,26.23
2017-09-29T12:09:17.580Z,27.15
2017-09-29T12:11:46.011Z,25.40
2017-09-29T12:14:14.322Z,26.12
2017-09-29T12:16:41.862Z,24.80
2017-09-29T12:19:09.441Z,29.17
2017-09-29T12:21:36.993Z,27.75
2017-09-29T12:24:04.684Z,25.70
2017-09-29T12:26:32.228Z,28.73
2017-09-29T12:29:00.729Z,25.90
2017-09-29T12:31:28.253Z,28.80
2017-09-29T12:33:55.803Z,25.20
2017-09-29T12:36:23.362Z,26.27
2017-09-29T12:38:51.128Z,22.08
2017-09-29T12:41:21.271Z,26.33
2017-09-29T12:43:50.253Z,24.75
2017-09-29T12:46:21.088Z,23.52
2017-09-29T12:48:48.616Z,22.16
2017-09-29T12:51:17.368Z,25.90
2017-09-29T12:53:44.963Z,22.93
2017-09-29T12:56:12.486Z,24.83
2017-09-29T12:58:40.003Z,24.30
2017-09-29T13:01:07.725Z,23.20
2017-09-29T13:03:35.234Z,22.83
2017-09-29T13:06:03.299Z,22.80
2017-09-29T13:08:30.820Z,22.52
2017-09-29T13:10:58.339Z,21.77
2017-09-29T13:13:25.890Z,24.17
2017-09-29T13:15:53.448Z,23.83
2017-09-29T13:18:21.036Z,23.17
2017-09-29T13:20:48.555Z,21.33
2017-09-29T13:23:16.122Z,22.73
2017-09-29T13:25:43.639Z,22.30
2017-09-29T13:28:11.763Z,24.60
2017-09-29T13:30:39.383Z,23.87
2017-09-29T13:33:07.660Z,22.40
2017-09-29T13:35:35.471Z,23.77
2017-09-29T13:38:03.015Z,24.67
2017-09-29T13:40:30.525Z,21.53
2017-09-29T13:42:58.418Z,22.70
2017-09-29T13:45:25.928Z,20.83
2017-09-29T13:47:53.457Z,23.00
2017-09-29T13:50:21.012Z,25.23
2017-09-29T13:52:48.525Z,23.67
2017-09-29T13:55:16.226Z,23.87
2017-09-29T13:57:44.548Z,24.37
2017-09-29T14:00:12.106Z,24.33
2017-09-29T14:02:40.965Z,25.73
2017-09-29T14:05:08.947Z,23.70
2017-09-29T14:07:36.478Z,25.20
2017-09-29T14:10:04.024Z,22.83
2017-09-29T14:12:31.559Z,20.10
2017-09-29T14:14:59.115Z,21.87
2017-09-29T14:17:26.621Z,23.80
2017-09-29T14:19:54.616Z,22.97
2017-09-29T14:22:22.416Z,25.00
2017-09-29T14:24:50.139Z,22.20
2017-09-29T14:27:17.698Z,23.80
2017-09-29T14:29:45.597Z,24.17
2017-09-29T14:32:20.096Z,26.77
2017-09-29T14:34:48.273Z,25.97
2017-09-29T14:37:15.831Z,26.20
2017-09-29T14:39:43.734Z,28.40
2017-09-29T14:42:11.238Z,26.23
2017-09-29T14:44:39.282Z,24.90
2017-09-29T14:47:11.369Z,26.77
2017-09-29T14:49:39.179Z,23.87
2017-09-29T14:52:07.534Z,23.20
2017-09-29T14:54:35.172Z,24.40
2017-09-29T14:57:02.727Z,22.57
2017-09-29T14:59:30.244Z,25.58
2017-09-29T15:01:58.033Z,26.30
2017-09-29T15:04:27.279Z,23.63
2017-09-29T15:06:54.968Z,22.47
2017-09-29T15:09:22.487Z,22.37
2017-09-29T15:11:50.027Z,23.77
2017-09-29T15:14:17.530Z,22.37
2017-09-29T15:16:46.015Z,24.23
2017-09-29T15:19:13.532Z,23.75
2017-09-29T15:21:41.065Z,22.30
2017-09-29T15:24:09.696Z,22.37
2017-09-29T15:26:37.854Z,24.60
2017-09-29T15:29:05.414Z,25.70
2017-09-29T15:31:32.969Z,23.23
2017-09-29T15:34:00.475Z,24.13
2017-09-29T15:36:28.060Z,26.02
2017-09-29T15:38:55.647Z,24.80
2017-09-29T15:41:23.735Z,23.80
2017-09-29T15:43:51.324Z,26.27
2017-09-29T15:46:18.841Z,24.40
2017-09-29T15:48:46.371Z,26.90
2017-09-29T15:51:14.159Z,23.93
2017-09-29T15:53:41.667Z,25.37
2017-09-29T15:56:09.235Z,24.10
2017-09-29T15:58:37.145Z,23.65
2017-09-29T16:01:04.678Z,23.62
2017-09-29T16:03:36.052Z,24.05
2017-09-29T16:06:03.566Z,24.02
2017-09-29T16:08:31.123Z,24.47
2017-09-29T16:10:58.634Z,24.93
2017-09-29T16:13:27.844Z,25.17
2017-09-29T16:15:55.408Z,23.77
2017-09-29T16:18:23.822Z,24.70
2017-09-29T16:20:51.887Z,23.08
2017-09-29T16:23:19.395Z,25.30
2017-09-29T16:25:46.980Z,25.13
2017-09-29T16:28:14.546Z,24.50
2017-09-29T16:30:42.378Z,24.77
2017-09-29T16:33:09.938Z,23.68
2017-09-29T16:35:37.453Z,25.33
2017-09-29T16:38:06.589Z,26.10
2017-09-29T16:40:34.148Z,26.23
2017-09-29T16:43:01.663Z,27.50
2017-09-29T16:45:30.255Z,27.75
2017-09-29T16:47:57.908Z,27.17
2017-09-29T16:50:25.431Z,28.00
2017-09-29T16:52:53.036Z,27.20
2017-09-29T16:55:21.522Z,29.20
2017-09-29T16:57:49.906Z,28.30
2017-09-29T17:00:17.457Z,31.97
2017-09-29T17:02:46.123Z,29.80
2017-09-29T17:05:17.220Z,29.83
2017-09-29T17:07:44.746Z,29.50
2017-09-29T17:10:13.925Z,27.35
2017-09-29T17:12:41.448Z,29.95
2017-09-29T17:15:09.887Z,28.67
2017-09-29T17:17:39.167Z,29.70
2017-09-29T17:20:06.731Z,26.15
2017-09-29T17:22:34.300Z,29.20
2017-09-29T17:25:01.864Z,28.27
2017-09-29T17:27:29.538Z,26.52
2017-09-29T17:29:57.064Z,29.80
2017-09-29T17:32:24.620Z,29.87
2017-09-29T17:34:57.482Z,29.30
2017-09-29T17:37:25.752Z,28.33
2017-09-29T17:39:53.682Z,28.58
2017-09-29T17:42:21.959Z,29.33
2017-09-29T17:44:49.476Z,27.10
2017-09-29T17:47:17.080Z,28.10
2017-09-29T17:49:44.623Z,30.25
2017-09-29T17:52:12.695Z,27.37
2017-09-29T17:54:40.299Z,29.20
2017-09-29T17:57:07.821Z,28.97
2017-09-29T17:59:35.479Z,28.00
2017-09-29T18:02:03.027Z,29.27
2017-09-29T18:04:30.576Z,28.60
2017-09-29T18:07:02.155Z,29.53
2017-09-29T18:09:30.856Z,27.60
2017-09-29T18:11:59.262Z,26.83
2017-09-29T18:14:27.951Z,28.67
2017-09-29T18:16:55.527Z,28.67
2017-09-29T18:19:23.029Z,26.20
2017-09-29T18:21:52.248Z,27.67
2017-09-29T18:24:19.787Z,26.55
2017-09-29T18:26:47.345Z,26.63
2017-09-29T18:29:16.536Z,25.70
2017-09-29T18:31:44.044Z,27.67
2017-09-29T18:34:11.595Z,27.80
2017-09-29T18:36:39.127Z,27.25
2017-09-29T18:39:07.573Z,26.58
2017-09-29T18:41:56.191Z,26.70
2017-09-29T18:47:28.466Z,26.20
2017-09-29T18:49:56.924Z,27.20
2017-09-29T18:52:25.432Z,25.48
2017-09-29T18:54:53.008Z,27.48
2017-09-29T18:57:20.544Z,22.83
2017-09-29T18:59:48.451Z,29.23
2017-09-29T19:02:15.995Z,25.90
2017-09-29T19:04:44.836Z,24.95
2017-09-29T19:07:12.622Z,25.50
2017-09-29T19:09:40.203Z,26.90
2017-09-29T19:12:09.355Z,27.08
2017-09-29T19:14:37.151Z,27.20
2017-09-29T19:17:04.710Z,22.50
2017-09-29T19:19:33.123Z,24.00
2017-09-29T19:22:04.180Z,24.73
2017-09-29T19:24:31.700Z,23.37
2017-09-29T19:26:59.204Z,23.97
2017-09-29T19:29:26.798Z,26.80
2017-09-29T19:31:54.346Z,25.80
2017-09-29T19:34:23.556Z,24.00
2017-09-29T19:36:58.776Z,25.60
2017-09-29T19:39:27.062Z,27.90
2017-09-29T19:41:54.623Z,26.08
2017-09-29T19:44:22.907Z,26.33
2017-09-29T19:46:50.423Z,24.70
2017-09-29T19:49:18.572Z,26.13
2017-09-29T19:51:46.071Z,24.10
2017-09-29T19:54:13.991Z,26.23
2017-09-29T19:56:41.500Z,25.40
2017-09-29T19:59:09.773Z,29.07
2017-09-29T20:01:37.878Z,26.80
2017-09-29T20:04:05.456Z,25.60
2017-09-29T20:06:32.966Z,25.83
2017-09-29T20:09:00.861Z,26.07
2017-09-29T20:11:28.389Z,27.58
2017-09-29T20:13:57.662Z,26.92
2017-09-29T20:16:25.225Z,27.50
2017-09-29T20:18:52.765Z,27.90
2017-09-29T20:21:20.315Z,28.27
2017-09-29T20:23:47.835Z,27.73
2017-09-29T20:26:19.807Z,28.65
2017-09-29T20:28:47.408Z,28.77
2017-09-29T20:31:15.143Z,25.92
2017-09-29T20:33:43.337Z,22.57
2017-09-29T20:36:11.227Z,21.70
2017-09-29T20:38:38.738Z,24.10
2017-09-29T20:41:06.296Z,25.87
2017-09-29T20:43:34.745Z,25.40
2017-09-29T20:46:02.258Z,24.20
2017-09-29T20:48:30.284Z,24.65
2017-09-29T20:50:57.799Z,24.93
2017-09-29T20:53:28.808Z,26.85
2017-09-29T20:55:56.332Z,24.77
2017-09-29T20:58:23.848Z,25.67
2017-09-29T21:00:51.436Z,24.87
2017-09-29T21:03:20.914Z,28.33
2017-09-29T21:05:48.934Z,26.40
2017-09-29T21:08:17.444Z,26.77
2017-09-29T21:10:45.114Z,21.02
2017-09-29T21:13:13.147Z,24.20
2017-09-29T21:15:40.717Z,25.20
2017-09-29T21:18:08.679Z,25.45
2017-09-29T21:20:36.202Z,26.80
2017-09-29T21:23:03.750Z,22.83
2017-09-29T21:25:31.283Z,22.83
2017-09-29T21:27:58.851Z,23.90
2017-09-29T21:30:26.368Z,25.03
2017-09-29T21:32:54.649Z,18.80
2017-09-29T21:35:22.540Z,18.60
2017-09-29T21:37:50.079Z,23.50
2017-09-29T21:40:17.903Z,18.83
2017-09-29T21:42:45.499Z,19.43
2017-09-29T21:45:13.779Z,14.43
2017-09-29T21:47:41.791Z,16.67
2017-09-29T21:50:09.304Z,16.77
2017-09-29T21:52:36.832Z,15.20
2017-09-29T21:55:08.580Z,17.70
2017-09-29T21:57:36.724Z,21.80
2017-09-29T22:00:04.355Z,21.90
2017-09-29T22:02:31.883Z,19.52
2017-09-29T22:04:59.444Z,21.33
2017-09-29T22:07:27.003Z,19.67
2017-09-29T22:09:54.510Z,14.47
2017-09-29T22:12:22.043Z,17.50
2017-09-29T22:14:50.518Z,21.12
2017-09-29T22:17:18.027Z,18.57
2017-09-29T22:19:45.562Z,20.13
2017-09-29T22:22:13.332Z,17.07
2017-09-29T22:24:44.480Z,21.23
2017-09-29T22:27:12.005Z,20.27
2017-09-29T22:29:41.127Z,18.55
2017-09-29T22:32:08.934Z,18.20
2017-09-29T22:34:36.800Z,16.50
2017-09-29T22:37:04.322Z,17.35
2017-09-29T22:39:31.848Z,20.10
2017-09-29T22:42:04.221Z,17.50
2017-09-29T22:44:31.736Z,19.27
2017-09-29T22:46:59.295Z,14.70
2017-09-29T22:49:27.041Z,13.88
2017-09-29T22:51:54.804Z,15.55
2017-09-29T22:54:22.674Z,14.02
2017-09-29T22:56:53.712Z,16.23
2017-09-29T22:59:21.222Z,14.53
2017-09-29T23:01:49.318Z,15.77
2017-09-29T23:04:16.875Z,16.30
2017-09-29T23:06:44.712Z,16.20
2017-09-29T23:09:12.248Z,18.90
2017-09-29T23:11:51.036Z,18.62
2017-09-29T23:14:18.549Z,19.10
2017-09-29T23:16:46.116Z,20.60
2017-09-29T23:19:15.442Z,22.00
2017-09-29T23:21:43.417Z,18.08
2017-09-29T23:24:11.056Z,15.47
2017-09-29T23:26:39.215Z,16.80
2017-09-29T23:29:06.931Z,14.00
2017-09-29T23:31:34.463Z,17.52
2017-09-29T23:34:02.739Z,18.77
2017-09-29T23:36:30.307Z,18.33
2017-09-29T23:38:58.625Z,16.30
2017-09-29T23:41:29.644Z,15.67
2017-09-29T23:43:57.163Z,17.93
2017-09-29T23:46:24.723Z,17.60
2017-09-29T23:48:53.968Z,17.42
2017-09-29T23:51:21.476Z,20.42
2017-09-29T23:53:49.974Z,19.07
2017-09-29T23:56:18.773Z,20.98
2017-09-29T23:58:46.308Z,18.98
